createdAt,value
2022-12-16T00:01:51.291Z,97079.28
2022-12-16T00:03:57.618Z,97078.56
2022-12-16T00:06:03.804Z,97084.50
2022-12-16T00:08:08.716Z,97081.06
2022-12-16T00:10:15.874Z,97085.41
2022-12-16T00:12:20.423Z,97079.41
2022-12-16T00:14:24.946Z,97076.06
2022-12-16T00:16:29.600Z,97079.41
2022-12-16T00:18:34.168Z,97070.06
2022-12-16T00:20:38.736Z,97080.16
2022-12-16T00:22:43.223Z,97074.09
2022-12-16T00:24:47.810Z,97074.22
2022-12-16T00:26:54.918Z,97075.00
2022-12-16T00:28:59.545Z,97074.28
2022-12-16T00:31:04.147Z,97071.59
2022-12-16T00:33:08.949Z,97075.81
2022-12-16T00:35:13.481Z,97079.16
2022-12-16T00:37:17.996Z,97070.66
2022-12-16T00:39:22.576Z,97071.41
2022-12-16T00:41:27.131Z,97066.38
2022-12-16T00:43:34.498Z,97067.13
2022-12-16T00:45:39.557Z,97062.09
2022-12-16T00:47:44.140Z,97059.59
2022-12-16T00:49:48.626Z,97058.88
2022-12-16T00:51:53.139Z,97061.50
2022-12-16T00:54:00.259Z,97065.84
2022-12-16T00:56:05.717Z,97061.56
2022-12-16T00:58:10.633Z,97065.84
2022-12-16T01:00:18.886Z,97070.00
2022-12-16T01:02:23.537Z,97063.09
2022-12-16T01:04:28.490Z,97065.88
2022-12-16T01:06:33.041Z,97076.00
2022-12-16T01:08:37.520Z,97077.59
2022-12-16T01:10:42.181Z,97084.34
2022-12-16T01:12:46.642Z,97080.81
2022-12-16T01:14:51.377Z,97081.59
2022-12-16T01:16:59.109Z,97072.19
2022-12-16T01:19:03.655Z,97078.97
2022-12-16T01:21:09.044Z,97088.31
2022-12-16T01:23:13.703Z,97092.47
2022-12-16T01:25:18.695Z,97086.53
2022-12-16T01:27:23.286Z,97078.00
2022-12-16T01:29:27.867Z,97089.03
2022-12-16T01:31:32.505Z,97087.47
2022-12-16T01:33:39.624Z,97087.41
2022-12-16T01:35:55.142Z,97093.25
2022-12-16T01:38:00.202Z,97101.63
2022-12-16T01:40:04.718Z,97099.84
2022-12-16T01:42:13.203Z,97098.09
2022-12-16T01:44:18.879Z,97096.50
2022-12-16T01:46:26.009Z,97097.47
2022-12-16T01:48:38.572Z,97094.06
2022-12-16T01:50:45.897Z,97095.84
2022-12-16T01:52:52.315Z,97091.56
2022-12-16T01:54:59.959Z,97088.91
2022-12-16T01:57:06.887Z,97089.78
2022-12-16T01:59:11.691Z,97093.25
2022-12-16T02:01:17.708Z,97090.69
2022-12-16T02:03:22.909Z,97097.47
2022-12-16T02:05:27.818Z,97094.06
2022-12-16T02:07:34.935Z,97100.13
2022-12-16T02:09:39.498Z,97093.56
2022-12-16T02:12:11.076Z,97093.50
2022-12-16T02:14:32.758Z,97105.75
2022-12-16T02:16:42.138Z,97099.69
2022-12-16T02:18:49.943Z,97099.63
2022-12-16T02:21:10.551Z,97090.28
2022-12-16T02:23:29.807Z,97103.97
2022-12-16T02:25:44.995Z,97097.91
2022-12-16T02:27:56.455Z,97101.34
2022-12-16T02:30:16.187Z,97106.59
2022-12-16T02:32:25.807Z,97115.06
2022-12-16T02:34:34.655Z,97112.56
2022-12-16T02:36:45.140Z,97110.09
2022-12-16T02:38:56.145Z,97114.38
2022-12-16T02:41:04.728Z,97129.59
2022-12-16T02:43:11.831Z,97124.66
2022-12-16T02:45:18.740Z,97122.16
2022-12-16T02:47:26.450Z,97126.44
2022-12-16T02:49:46.049Z,97130.00
2022-12-16T02:51:51.006Z,97126.59
2022-12-16T02:53:56.948Z,97132.53
2022-12-16T02:56:05.021Z,97132.44
2022-12-16T02:58:16.969Z,97128.97
2022-12-16T03:00:22.735Z,97134.88
2022-12-16T03:02:33.748Z,97136.00
2022-12-16T03:04:41.633Z,97132.66
2022-12-16T03:06:48.249Z,97130.06
2022-12-16T03:08:55.121Z,97124.00
2022-12-16T03:11:01.469Z,97129.97
2022-12-16T03:13:07.702Z,97129.16
2022-12-16T03:15:12.994Z,97134.22
2022-12-16T03:17:18.802Z,97134.22
2022-12-16T03:19:27.348Z,97140.13
2022-12-16T03:21:34.258Z,97141.78
2022-12-16T03:23:41.877Z,97143.41
2022-12-16T03:25:48.432Z,97140.78
2022-12-16T03:27:57.005Z,97141.56
2022-12-16T03:30:06.801Z,97137.34
2022-12-16T03:32:15.534Z,97140.00
2022-12-16T03:34:24.812Z,97148.44
2022-12-16T03:36:35.838Z,97150.03
2022-12-16T03:38:41.313Z,97149.94
2022-12-16T03:40:47.089Z,97151.63
2022-12-16T03:42:52.357Z,97153.50
2022-12-16T03:44:57.027Z,97161.91
2022-12-16T03:47:01.551Z,97169.47
2022-12-16T03:49:06.145Z,97166.00
2022-12-16T03:51:10.865Z,97175.31
2022-12-16T03:53:18.642Z,97165.91
2022-12-16T03:55:23.212Z,97165.13
2022-12-16T03:57:27.818Z,97154.13
2022-12-16T03:59:32.374Z,97156.91
2022-12-16T04:01:37.926Z,97154.41
2022-12-16T04:03:42.912Z,97152.84
2022-12-16T04:05:48.555Z,97153.78
2022-12-16T04:07:55.254Z,97157.53
2022-12-16T04:10:04.611Z,97162.59
2022-12-16T04:12:21.691Z,97158.22
2022-12-16T04:14:38.703Z,97162.56
2022-12-16T04:16:55.745Z,97171.47
2022-12-16T04:19:12.694Z,97164.78
2022-12-16T04:21:29.635Z,97176.63
2022-12-16T04:23:47.505Z,97179.91
2022-12-16T04:25:54.687Z,97180.78
2022-12-16T04:27:59.303Z,97180.75
2022-12-16T04:30:16.277Z,97179.91
2022-12-16T04:32:20.835Z,97187.44
2022-12-16T04:34:25.637Z,97191.69
2022-12-16T04:36:42.594Z,97199.22
2022-12-16T04:38:59.580Z,97208.56
2022-12-16T04:41:19.291Z,97214.38
2022-12-16T04:43:36.510Z,97207.56
2022-12-16T04:45:54.145Z,97213.59
2022-12-16T04:48:11.446Z,97211.75
2022-12-16T04:50:28.450Z,97219.47
2022-12-16T04:52:45.391Z,97215.25
2022-12-16T04:55:02.355Z,97218.50
2022-12-16T04:57:21.890Z,97219.28
2022-12-16T04:59:38.864Z,97223.41
2022-12-16T05:01:56.047Z,97225.19
2022-12-16T05:04:13.101Z,97229.34
2022-12-16T05:06:30.296Z,97220.00
2022-12-16T05:08:47.409Z,97232.75
2022-12-16T05:11:04.340Z,97225.91
2022-12-16T05:13:23.934Z,97225.03
2022-12-16T05:15:40.957Z,97227.63
2022-12-16T05:17:58.016Z,97233.69
2022-12-16T05:20:14.996Z,97234.63
2022-12-16T05:22:32.121Z,97234.72
2022-12-16T05:24:52.868Z,97238.00
2022-12-16T05:27:10.226Z,97231.91
2022-12-16T05:29:29.843Z,97236.19
2022-12-16T05:31:46.960Z,97230.22
2022-12-16T05:34:03.983Z,97239.59
2022-12-16T05:36:21.207Z,97241.25
2022-12-16T05:38:38.138Z,97239.53
2022-12-16T05:40:55.155Z,97243.03
2022-12-16T05:43:20.756Z,97245.00
2022-12-16T05:45:40.335Z,97256.81
2022-12-16T05:47:57.354Z,97262.69
2022-12-16T05:50:14.349Z,97266.25
2022-12-16T05:52:32.943Z,97271.47
2022-12-16T05:54:50.039Z,97268.84
2022-12-16T05:57:06.961Z,97268.75
2022-12-16T05:59:24.536Z,97268.81
2022-12-16T06:01:44.172Z,97276.53
2022-12-16T06:04:01.301Z,97282.38
2022-12-16T06:06:18.369Z,97283.28
2022-12-16T06:08:35.336Z,97291.81
2022-12-16T06:10:52.329Z,97290.88
2022-12-16T06:13:09.258Z,97295.25
2022-12-16T06:15:26.376Z,97296.13
2022-12-16T06:17:45.967Z,97296.19
2022-12-16T06:20:02.893Z,97304.63
2022-12-16T06:22:19.887Z,97304.47
2022-12-16T06:24:36.937Z,97310.38
2022-12-16T06:26:53.999Z,97305.13
2022-12-16T06:29:10.943Z,97316.22
2022-12-16T06:31:27.966Z,97319.56
2022-12-16T06:33:51.874Z,97322.91
2022-12-16T06:36:11.599Z,97322.91
2022-12-16T06:38:28.600Z,97328.03
2022-12-16T06:40:45.722Z,97326.34
2022-12-16T06:43:02.662Z,97325.53
2022-12-16T06:45:22.834Z,97334.94
2022-12-16T06:47:39.773Z,97328.97
2022-12-16T06:49:59.315Z,97342.59
2022-12-16T06:52:16.313Z,97344.25
2022-12-16T06:54:33.310Z,97341.81
2022-12-16T06:56:50.234Z,97340.19
2022-12-16T06:59:07.260Z,97346.13
2022-12-16T07:01:24.370Z,97353.81
2022-12-16T07:03:41.935Z,97354.66
2022-12-16T07:06:02.199Z,97370.78
2022-12-16T07:08:19.496Z,97359.75
2022-12-16T07:10:36.467Z,97364.13
2022-12-16T07:12:53.475Z,97372.59
2022-12-16T07:15:10.448Z,97377.66
2022-12-16T07:17:27.462Z,97377.63
2022-12-16T07:19:44.402Z,97384.34
2022-12-16T07:22:04.004Z,97386.03
2022-12-16T07:24:21.233Z,97393.75
2022-12-16T07:26:38.358Z,97390.28
2022-12-16T07:30:24.495Z,97403.81
2022-12-16T07:32:41.911Z,97402.97
2022-12-16T07:34:59.103Z,97402.09
2022-12-16T07:37:16.293Z,97410.56
2022-12-16T07:39:33.613Z,97411.53
2022-12-16T07:41:50.890Z,97412.41
2022-12-16T07:44:10.364Z,97416.69
2022-12-16T07:46:30.279Z,97424.34
2022-12-16T07:48:47.571Z,97431.94
2022-12-16T07:51:13.509Z,97437.84
2022-12-16T07:53:31.461Z,97440.34
2022-12-16T07:55:48.897Z,97446.41
2022-12-16T07:58:06.621Z,97454.88
2022-12-16T08:00:25.350Z,97454.78
2022-12-16T08:02:45.317Z,97461.56
2022-12-16T08:05:02.752Z,97460.78
2022-12-16T08:07:20.200Z,97460.84
2022-12-16T08:09:37.898Z,97465.97
2022-12-16T08:12:03.655Z,97461.69
2022-12-16T08:14:20.914Z,97468.41
2022-12-16T08:16:38.289Z,97475.25
2022-12-16T08:18:58.128Z,97482.75
2022-12-16T08:21:15.502Z,97490.66
2022-12-16T08:23:33.110Z,97482.38
2022-12-16T08:25:50.578Z,97490.97
2022-12-16T08:28:09.794Z,97492.66
2022-12-16T08:30:27.839Z,97501.94
2022-12-16T08:32:45.238Z,97494.34
2022-12-16T08:35:05.059Z,97502.09
2022-12-16T08:37:22.697Z,97498.50
2022-12-16T08:39:39.938Z,97503.44
2022-12-16T08:41:57.231Z,97502.69
2022-12-16T08:44:14.457Z,97508.56
2022-12-16T08:46:31.777Z,97506.88
2022-12-16T08:48:49.022Z,97510.13
2022-12-16T08:51:08.858Z,97506.03
2022-12-16T08:53:26.133Z,97508.69
2022-12-16T08:55:43.438Z,97513.81
2022-12-16T08:58:08.884Z,97519.72
2022-12-16T09:00:27.616Z,97519.75
2022-12-16T09:02:44.963Z,97528.88
2022-12-16T09:05:02.432Z,97534.75
2022-12-16T09:07:22.357Z,97528.88
2022-12-16T09:09:39.842Z,97521.16
2022-12-16T09:11:57.066Z,97526.97
2022-12-16T09:14:14.382Z,97533.94
2022-12-16T09:16:31.704Z,97545.13
2022-12-16T09:18:49.041Z,97545.06
2022-12-16T09:21:06.944Z,97543.16
2022-12-16T09:23:26.758Z,97542.25
2022-12-16T09:25:43.918Z,97541.19
2022-12-16T09:28:04.514Z,97538.72
2022-12-16T09:30:23.604Z,97545.41
2022-12-16T09:32:40.813Z,97544.44
2022-12-16T09:34:58.014Z,97538.34
2022-12-16T09:37:29.999Z,97539.25
2022-12-16T09:39:49.947Z,97541.94
2022-12-16T09:42:26.095Z,97550.41
2022-12-16T09:45:01.486Z,97554.53
2022-12-16T09:47:25.783Z,97558.09
2022-12-16T09:49:56.484Z,97564.06
2022-12-16T09:52:18.537Z,97558.28
2022-12-16T09:54:41.985Z,97558.03
2022-12-16T09:57:14.676Z,97560.41
2022-12-16T09:59:37.537Z,97566.41
2022-12-16T10:01:55.716Z,97556.16
2022-12-16T10:04:13.780Z,97564.44
2022-12-16T10:06:46.654Z,97562.53
2022-12-16T10:09:10.539Z,97559.13
2022-12-16T10:11:37.339Z,97562.72
2022-12-16T10:14:03.915Z,97561.63
2022-12-16T10:16:31.697Z,97569.63
2022-12-16T10:19:01.806Z,97559.31
2022-12-16T10:21:21.422Z,97561.88
2022-12-16T10:23:43.927Z,97565.28
2022-12-16T10:26:06.728Z,97563.66
2022-12-16T10:28:31.592Z,97561.03
2022-12-16T10:30:53.699Z,97561.00
2022-12-16T10:33:12.480Z,97563.50
2022-12-16T10:35:36.666Z,97566.03
2022-12-16T10:37:55.734Z,97569.41
2022-12-16T10:40:23.661Z,97570.97
2022-12-16T10:42:44.875Z,97575.16
2022-12-16T10:45:07.646Z,97572.19
2022-12-16T10:47:27.889Z,97571.31
2022-12-16T10:49:49.587Z,97573.81
2022-12-16T10:52:10.972Z,97576.34
2022-12-16T10:54:44.193Z,97581.31
2022-12-16T10:57:09.015Z,97582.13
2022-12-16T10:59:26.829Z,97583.13
2022-12-16T11:01:44.687Z,97586.47
2022-12-16T11:04:04.798Z,97578.09
2022-12-16T11:06:23.866Z,97579.00
2022-12-16T11:08:47.954Z,97587.50
2022-12-16T11:11:05.238Z,97585.06
2022-12-16T11:13:32.021Z,97588.41
2022-12-16T11:15:49.580Z,97589.44
2022-12-16T11:18:18.043Z,97590.38
2022-12-16T11:20:39.489Z,97589.44
2022-12-16T11:22:56.709Z,97584.94
2022-12-16T11:25:22.881Z,97585.91
2022-12-16T11:27:42.168Z,97599.00
2022-12-16T11:30:09.773Z,97593.72
2022-12-16T11:32:36.578Z,97593.63
2022-12-16T11:34:53.882Z,97597.09
2022-12-16T11:37:18.114Z,97595.31
2022-12-16T11:39:41.606Z,97597.97
2022-12-16T11:42:01.468Z,97593.53
2022-12-16T11:44:20.314Z,97589.50
2022-12-16T11:46:42.497Z,97596.28
2022-12-16T11:49:04.635Z,97599.59
2022-12-16T11:51:28.642Z,97603.13
2022-12-16T11:53:55.475Z,97607.28
2022-12-16T11:56:16.322Z,97617.63
2022-12-16T11:58:40.696Z,97614.19
2022-12-16T12:01:09.057Z,97620.84
2022-12-16T12:03:30.156Z,97619.22
2022-12-16T12:05:53.828Z,97623.34
2022-12-16T12:08:24.030Z,97623.22
2022-12-16T12:11:04.791Z,97623.25
2022-12-16T12:13:32.974Z,97626.72
2022-12-16T12:15:57.396Z,97629.31
2022-12-16T12:18:20.603Z,97638.69
2022-12-16T12:20:50.055Z,97636.06
2022-12-16T12:23:13.292Z,97635.38
2022-12-16T12:25:39.071Z,97639.56
2022-12-16T12:28:07.410Z,97647.63
2022-12-16T12:30:28.519Z,97656.16
2022-12-16T12:32:52.996Z,97656.91
2022-12-16T12:35:22.445Z,97650.34
2022-12-16T12:37:44.179Z,97658.28
2022-12-16T12:40:03.028Z,97656.63
2022-12-16T12:42:38.367Z,97667.63
2022-12-16T12:45:10.719Z,97664.09
2022-12-16T12:47:40.612Z,97666.69
2022-12-16T12:50:09.501Z,97669.59
2022-12-16T12:52:43.578Z,97673.91
2022-12-16T12:55:07.833Z,97672.22
2022-12-16T12:57:31.209Z,97673.13
2022-12-16T13:00:02.560Z,97673.81
2022-12-16T13:02:29.062Z,97679.59
2022-12-16T13:04:48.458Z,97676.94
2022-12-16T13:07:06.603Z,97682.09
2022-12-16T13:09:40.568Z,97687.16
2022-12-16T13:12:27.638Z,97686.31
2022-12-16T13:15:09.841Z,97691.44
2022-12-16T13:17:29.980Z,97694.84
2022-12-16T13:19:58.352Z,97701.69
2022-12-16T13:22:15.596Z,97702.47
2022-12-16T13:24:44.630Z,97712.78
2022-12-16T13:27:16.212Z,97717.84
2022-12-16T13:29:36.795Z,97715.97
2022-12-16T13:32:17.918Z,97714.59
2022-12-16T13:34:44.467Z,97719.69
2022-12-16T13:37:11.988Z,97728.31
2022-12-16T13:39:41.203Z,97722.25
2022-12-16T13:42:15.814Z,97730.81
2022-12-16T13:45:02.851Z,97726.47
2022-12-16T13:47:47.012Z,97734.97
2022-12-16T13:50:08.008Z,97735.09
2022-12-16T13:52:31.579Z,97744.47
2022-12-16T13:54:54.497Z,97740.06
2022-12-16T13:57:17.143Z,97746.75
2022-12-16T13:59:38.917Z,97740.81
2022-12-16T14:02:04.688Z,97751.06
2022-12-16T14:04:26.186Z,97757.78
2022-12-16T14:06:47.532Z,97754.44
2022-12-16T14:09:06.162Z,97764.66
2022-12-16T14:11:34.767Z,97757.94
2022-12-16T14:13:57.372Z,97783.63
2022-12-16T14:16:22.099Z,97773.47
2022-12-16T14:18:51.654Z,97784.59
2022-12-16T14:21:14.422Z,97794.81
2022-12-16T14:23:57.960Z,97793.97
2022-12-16T14:26:15.978Z,97793.13
2022-12-16T14:28:42.345Z,97799.94
2022-12-16T14:30:59.617Z,97795.63
2022-12-16T14:33:31.055Z,97804.22
2022-12-16T14:35:48.593Z,97802.44
2022-12-16T14:38:05.838Z,97805.91
2022-12-16T14:40:36.135Z,97807.56
2022-12-16T14:42:56.830Z,97808.44
2022-12-16T14:45:15.013Z,97810.09
2022-12-16T14:47:34.401Z,97816.06
2022-12-16T14:49:51.920Z,97822.91
2022-12-16T14:52:09.182Z,97822.06
2022-12-16T14:54:35.019Z,97828.00
2022-12-16T14:56:54.993Z,97834.91
2022-12-16T14:59:33.983Z,97831.47
2022-12-16T15:01:57.822Z,97831.47
2022-12-16T15:04:17.270Z,97840.84
2022-12-16T15:06:41.152Z,97836.56
2022-12-16T15:09:05.719Z,97833.31
2022-12-16T15:11:26.770Z,97838.50
2022-12-16T15:14:04.275Z,97834.38
2022-12-16T15:16:22.998Z,97842.88
2022-12-16T15:18:43.649Z,97848.00
2022-12-16T15:21:05.958Z,97845.44
2022-12-16T15:23:31.131Z,97852.28
2022-12-16T15:25:48.815Z,97859.06
2022-12-16T15:28:09.701Z,97857.34
2022-12-16T15:30:54.858Z,97867.59
2022-12-16T15:33:12.169Z,97865.94
2022-12-16T15:35:39.962Z,97870.13
2022-12-16T15:38:03.911Z,97883.03
2022-12-16T15:40:44.177Z,97873.69
2022-12-16T15:43:06.883Z,97880.56
2022-12-16T15:45:33.985Z,97885.66
2022-12-16T15:47:56.715Z,97895.06
2022-12-16T15:50:19.257Z,97895.94
2022-12-16T15:52:38.621Z,97901.91
2022-12-16T15:55:07.043Z,97901.94
2022-12-16T15:57:40.618Z,97909.53
2022-12-16T16:00:10.515Z,97912.94
2022-12-16T16:02:33.183Z,97932.63
2022-12-16T16:04:53.205Z,97936.03
2022-12-16T16:07:10.526Z,97938.59
2022-12-16T16:09:29.479Z,97947.03
2022-12-16T16:11:46.751Z,97947.91
2022-12-16T16:14:12.381Z,97940.28
2022-12-16T16:16:32.156Z,97945.44
2022-12-16T16:18:52.130Z,97953.94
2022-12-16T16:21:12.182Z,97953.03
2022-12-16T16:23:44.102Z,97952.19
2022-12-16T16:26:04.195Z,97952.97
2022-12-16T16:28:23.207Z,97952.09
2022-12-16T16:30:40.539Z,97960.63
2022-12-16T16:32:57.958Z,97960.69
2022-12-16T16:35:15.238Z,97962.34
2022-12-16T16:37:38.309Z,97962.28
2022-12-16T16:39:56.195Z,97965.69
2022-12-16T16:42:13.631Z,97966.59
2022-12-16T16:44:42.623Z,97965.78
2022-12-16T16:47:01.882Z,97967.56
2022-12-16T16:49:19.489Z,97964.19
2022-12-16T16:51:36.740Z,97972.69
2022-12-16T16:53:56.756Z,97973.53
2022-12-16T16:56:19.855Z,97965.84
2022-12-16T16:58:42.660Z,97981.16
2022-12-16T17:01:00.066Z,97976.09
2022-12-16T17:03:17.729Z,97988.88
2022-12-16T17:05:35.591Z,97974.41
2022-12-16T17:07:54.103Z,97988.06
2022-12-16T17:10:14.031Z,97992.34
2022-12-16T17:12:34.817Z,97995.75
2022-12-16T17:14:52.224Z,97999.19
2022-12-16T17:17:09.457Z,97997.53
2022-12-16T17:19:26.681Z,98001.81
2022-12-16T17:21:44.127Z,98002.66
2022-12-16T17:24:01.369Z,98006.03
2022-12-16T17:26:21.174Z,98008.63
2022-12-16T17:28:38.521Z,98009.50
2022-12-16T17:30:55.840Z,98024.00
2022-12-16T17:33:13.068Z,98023.22
2022-12-16T17:35:30.615Z,98029.16
2022-12-16T17:37:47.896Z,98029.22
2022-12-16T17:40:05.117Z,98034.34
2022-12-16T17:42:25.041Z,98039.47
2022-12-16T17:44:42.461Z,98035.25
2022-12-16T17:46:59.684Z,98036.09
2022-12-16T17:49:17.064Z,98048.88
2022-12-16T17:51:34.375Z,98045.47
2022-12-16T17:53:55.749Z,98056.56
2022-12-16T17:56:18.869Z,98058.25
2022-12-16T17:58:44.898Z,98070.19
2022-12-16T18:01:02.139Z,98063.38
2022-12-16T18:03:19.592Z,98070.16
2022-12-16T18:05:43.994Z,98072.75
2022-12-16T18:08:10.851Z,98076.13
2022-12-16T18:10:28.068Z,98092.28
2022-12-16T18:12:46.743Z,98087.19
2022-12-16T18:15:06.611Z,98093.13
2022-12-16T18:17:26.455Z,98095.69
2022-12-16T18:19:43.678Z,98101.63
2022-12-16T18:22:01.420Z,98100.78
2022-12-16T18:24:21.643Z,98102.50
2022-12-16T18:26:38.901Z,98104.16
2022-12-16T18:28:56.079Z,98109.28
2022-12-16T18:31:19.782Z,98110.97
2022-12-16T18:33:37.359Z,98110.06
2022-12-16T18:35:54.826Z,98121.13
2022-12-16T18:38:16.232Z,98125.38
2022-12-16T18:40:34.006Z,98129.59
2022-12-16T18:42:52.235Z,98131.31
2022-12-16T18:45:09.527Z,98127.88
2022-12-16T18:47:31.311Z,98129.59
2022-12-16T18:49:48.567Z,98135.53
2022-12-16T18:52:05.869Z,98148.28
2022-12-16T18:54:23.150Z,98147.38
2022-12-16T18:56:42.862Z,98155.03
2022-12-16T18:59:00.499Z,98158.44
2022-12-16T19:01:18.329Z,98160.97
2022-12-16T19:03:38.339Z,98157.56
2022-12-16T19:06:01.568Z,98155.81
2022-12-16T19:08:18.882Z,98159.22
2022-12-16T19:10:36.052Z,98162.59
2022-12-16T19:12:53.714Z,98161.72
2022-12-16T19:15:10.944Z,98165.09
2022-12-16T19:17:28.183Z,98161.66
2022-12-16T19:19:47.992Z,98172.72
2022-12-16T19:22:05.244Z,98176.97
2022-12-16T19:24:22.983Z,98179.50
2022-12-16T19:26:40.670Z,98191.44
2022-12-16T19:28:57.860Z,98187.16
2022-12-16T19:31:15.393Z,98193.97
2022-12-16T19:33:41.191Z,98193.94
2022-12-16T19:36:01.034Z,98203.31
2022-12-16T19:38:18.271Z,98204.91
2022-12-16T19:40:35.525Z,98211.75
2022-12-16T19:42:55.818Z,98215.13
2022-12-16T19:45:13.154Z,98211.75
2022-12-16T19:47:30.442Z,98212.50
2022-12-16T19:49:47.707Z,98221.88
2022-12-16T19:52:07.983Z,98225.25
2022-12-16T19:54:25.230Z,98231.22
2022-12-16T19:56:42.492Z,98230.38
2022-12-16T19:59:00.050Z,98229.56
2022-12-16T20:01:18.641Z,98233.88
2022-12-16T20:03:36.144Z,98236.44
2022-12-16T20:06:05.476Z,98235.63
2022-12-16T20:08:25.369Z,98239.13
2022-12-16T20:10:42.777Z,98244.28
2022-12-16T20:13:00.047Z,98248.63
2022-12-16T20:15:17.287Z,98254.63
2022-12-16T20:17:34.535Z,98249.56
2022-12-16T20:19:51.705Z,98253.88
2022-12-16T20:22:12.075Z,98249.66
2022-12-16T20:24:36.022Z,98257.34
2022-12-16T20:26:56.734Z,98260.72
2022-12-16T20:29:13.958Z,98269.22
2022-12-16T20:31:31.221Z,98270.09
2022-12-16T20:33:48.483Z,98276.91
2022-12-16T20:36:12.532Z,98282.91
2022-12-16T20:38:29.783Z,98282.88
2022-12-16T20:40:49.577Z,98285.50
2022-12-16T20:43:06.888Z,98287.22
2022-12-16T20:45:24.980Z,98290.66
2022-12-16T20:47:42.225Z,98288.06
2022-12-16T20:49:59.686Z,98295.78
2022-12-16T20:52:16.895Z,98308.56
2022-12-16T20:54:35.308Z,98303.53
2022-12-16T20:56:55.644Z,98306.09
2022-12-16T20:59:13.351Z,98301.03
2022-12-16T21:01:31.685Z,98303.59
2022-12-16T21:03:48.975Z,98318.06
2022-12-16T21:06:06.200Z,98315.56
2022-12-16T21:08:23.465Z,98319.78
2022-12-16T21:10:40.687Z,98315.53
2022-12-16T21:13:06.503Z,98314.69
2022-12-16T21:15:24.179Z,98326.63
2022-12-16T21:17:41.513Z,98329.19
2022-12-16T21:19:58.710Z,98336.84
2022-12-16T21:22:16.396Z,98334.28
2022-12-16T21:24:33.644Z,98341.09
2022-12-16T21:26:52.481Z,98345.38
2022-12-16T21:29:16.316Z,98343.66
2022-12-16T21:31:33.603Z,98350.44
2022-12-16T21:33:51.917Z,98355.56
2022-12-16T21:36:09.917Z,98352.94
2022-12-16T21:38:28.215Z,98358.88
2022-12-16T21:40:48.028Z,98364.81
2022-12-16T21:43:05.325Z,98363.97
2022-12-16T21:45:26.338Z,98373.25
2022-12-16T21:47:43.553Z,98371.53
2022-12-16T21:50:00.813Z,98378.34
2022-12-16T21:52:18.065Z,98379.16
2022-12-16T21:54:35.462Z,98381.69
2022-12-16T21:56:59.584Z,98388.44
2022-12-16T21:59:17.049Z,98396.06
2022-12-16T22:01:37.026Z,98398.56
2022-12-16T22:03:54.322Z,98407.94
2022-12-16T22:06:15.039Z,98404.50
2022-12-16T22:08:32.319Z,98407.06
2022-12-16T22:10:49.593Z,98408.81
2022-12-16T22:13:06.876Z,98410.56
2022-12-16T22:15:25.044Z,98415.72
2022-12-16T22:17:46.075Z,98413.97
2022-12-16T22:20:06.128Z,98422.38
2022-12-16T22:22:23.806Z,98430.00
2022-12-16T22:24:41.027Z,98432.59
2022-12-16T22:26:58.258Z,98436.88
2022-12-16T22:29:15.572Z,98441.88
2022-12-16T22:31:32.949Z,98436.81
2022-12-16T22:34:01.781Z,98445.28
2022-12-16T22:36:21.054Z,98437.47
2022-12-16T22:38:38.419Z,98441.72
2022-12-16T22:40:56.428Z,98445.97
2022-12-16T22:43:13.816Z,98451.97
2022-12-16T22:45:31.303Z,98452.88
2022-12-16T22:47:49.664Z,98452.03
2022-12-16T22:50:09.778Z,98445.28
2022-12-16T22:52:27.088Z,98456.09
2022-12-16T22:54:44.471Z,98450.81
2022-12-16T22:57:04.370Z,98458.19
2022-12-16T22:59:21.630Z,98459.78
2022-12-16T23:01:39.516Z,98459.72
2022-12-16T23:03:56.799Z,98462.16
2022-12-16T23:06:17.067Z,98465.53
2022-12-16T23:08:36.648Z,98468.00
2022-12-16T23:10:54.042Z,98475.56
2022-12-16T23:13:13.813Z,98470.41
2022-12-16T23:15:31.350Z,98477.13
2022-12-16T23:17:48.716Z,98475.47
2022-12-16T23:20:17.624Z,98488.34
2022-12-16T23:22:37.831Z,98486.66
2022-12-16T23:24:55.237Z,98484.00
2022-12-16T23:27:23.096Z,98484.91
2022-12-16T23:29:40.063Z,98483.97
2022-12-16T23:31:57.335Z,98482.22
2022-12-16T23:34:14.575Z,98491.50
2022-12-16T23:36:31.751Z,98489.03
2022-12-16T23:38:51.708Z,98489.78
2022-12-16T23:41:11.182Z,98492.38
2022-12-16T23:43:28.503Z,98489.06
2022-12-16T23:45:45.795Z,98484.69
2022-12-16T23:48:02.961Z,98499.22
2022-12-16T23:50:21.498Z,98494.16
2022-12-16T23:52:38.795Z,98500.06
2022-12-16T23:54:58.719Z,98497.56
2022-12-16T23:57:15.953Z,98502.53
2022-12-16T23:59:33.278Z,98506.00
